Atkins, Virginia
Current Conditions -  °F | °C
As of 9:35 PM on Saturday 20 Dec 2014 (Local Time) from KMKJ Reporting Station
Light Rain Light Rain  
Wind Chill:   Ceiling: 400
Heat Index:   Visibility: 1.5mi
Dew Point:   Wind: 0mph
Humidity: 95%   Direction: NA
Pressure: 30.21"   Gusts: NA
Location:  36.87°N, 81.4°W
Report Text: KMKJ 210235Z AUTO 00000KT 1 1/2SM -RA OVC004 03/02 A3021 RMK AO2 P0001 T00270020
Loading
Personal Weather Stations






























Interactive Weather Map New forecast layout! Learn more

10-Day Weather Forecast

Advertisements
Track Severe Weather on mobile